Terminal Aerodrome Forecast
Issued by NWS Albuquerque, NM

Home | Current Version | Previous Version | Text Only | Print | Product List | Glossary On
Versions: 1 2 3 4 5 6 7 8 9 10 11 12 13 14 15 16 17 18
000
FTUS45 KABQ 240439 AAC
TAFABQ
TAF AMD
KABQ 240439Z 2405/2424 27015KT P6SM VCSH SCT050 BKN080
      TEMPO 2405/2406 33015G25KT
     FM240600 27015KT P6SM VCSH SCT050 BKN080
     FM241200 30018G28KT P6SM SCT080=

USA.gov is the U.S. government's official web portal to all federal, state and local government web resources and services.